sensor_id;sensor_type;location;lat;lon;timestamp;pressure;altitude;pressure_sealevel;temperature;humidity
70521;BME280;58442;52.716;23.560;2023-03-04T00:00:47;100763.05;;;0.66;75.69
70521;BME280;58442;52.716;23.560;2023-03-04T00:02:53;100757.72;;;0.66;75.68
70521;BME280;58442;52.716;23.560;2023-03-04T00:04:55;100746.23;;;0.66;75.69
70521;BME280;58442;52.716;23.560;2023-03-04T00:06:56;100740.88;;;0.66;75.67
70521;BME280;58442;52.716;23.560;2023-03-04T00:09:04;100743.54;;;0.66;75.62
70521;BME280;58442;52.716;23.560;2023-03-04T00:11:05;100740.08;;;0.65;75.62
70521;BME280;58442;52.716;23.560;2023-03-04T00:13:07;100737.40;;;0.65;75.59
70521;BME280;58442;52.716;23.560;2023-03-04T00:15:09;100734.73;;;0.65;75.60
70521;BME280;58442;52.716;23.560;2023-03-04T00:17:19;100717.88;;;0.65;75.55
70521;BME280;58442;52.716;23.560;2023-03-04T00:19:20;100724.31;;;0.64;75.61
70521;BME280;58442;52.716;23.560;2023-03-04T00:21:22;100722.45;;;0.64;75.60
70521;BME280;58442;52.716;23.560;2023-03-04T00:23:24;100714.71;;;0.63;75.60
70521;BME280;58442;52.716;23.560;2023-03-04T00:25:34;100716.30;;;0.64;75.64
70521;BME280;58442;52.716;23.560;2023-03-04T00:27:35;100713.34;;;0.65;75.63
70521;BME280;58442;52.716;23.560;2023-03-04T00:29:37;100715.72;;;0.67;75.60
70521;BME280;58442;52.716;23.560;2023-03-04T00:31:38;100724.29;;;0.69;75.55
70521;BME280;58442;52.716;23.560;2023-03-04T00:33:49;100711.96;;;0.68;75.46
70521;BME280;58442;52.716;23.560;2023-03-04T00:35:51;100708.49;;;0.67;75.47
70521;BME280;58442;52.716;23.560;2023-03-04T00:37:52;100703.44;;;0.66;75.47
70521;BME280;58442;52.716;23.560;2023-03-04T00:39:53;100697.29;;;0.65;75.50
70521;BME280;58442;52.716;23.560;2023-03-04T00:42:05;100703.73;;;0.64;75.52
70521;BME280;58442;52.716;23.560;2023-03-04T00:44:06;100694.10;;;0.63;75.53
70521;BME280;58442;52.716;23.560;2023-03-04T00:46:07;100694.90;;;0.64;75.51
70521;BME280;58442;52.716;23.560;2023-03-04T00:48:09;100688.77;;;0.63;75.47
70521;BME280;58442;52.716;23.560;2023-03-04T00:50:19;100693.02;;;0.64;75.48
70521;BME280;58442;52.716;23.560;2023-03-04T00:52:21;100686.08;;;0.63;75.47
70521;BME280;58442;52.716;23.560;2023-03-04T00:54:22;100678.86;;;0.64;75.46
70521;BME280;58442;52.716;23.560;2023-03-04T00:56:24;100684.20;;;0.64;75.45
70521;BME280;58442;52.716;23.560;2023-03-04T00:58:34;100679.37;;;0.66;75.44
70521;BME280;58442;52.716;23.560;2023-03-04T01:00:36;100691.14;;;0.65;75.43
70521;BME280;58442;52.716;23.560;2023-03-04T01:02:37;100677.77;;;0.65;75.39
70521;BME280;58442;52.716;23.560;2023-03-04T01:04:38;100675.39;;;0.63;75.35
70521;BME280;58442;52.716;23.560;2023-03-04T01:06:49;100676.19;;;0.64;75.39
70521;BME280;58442;52.716;23.560;2023-03-04T01:08:51;100658.26;;;0.64;75.37
70521;BME280;58442;52.716;23.560;2023-03-04T01:10:52;100661.44;;;0.66;75.35
70521;BME280;58442;52.716;23.560;2023-03-04T01:12:54;100654.75;;;0.69;75.29
70521;BME280;58442;52.716;23.560;2023-03-04T01:15:05;100640.28;;;0.70;75.22
70521;BME280;58442;52.716;23.560;2023-03-04T01:17:07;100644.05;;;0.69;75.22
70521;BME280;58442;52.716;23.560;2023-03-04T01:19:08;100633.86;;;0.71;75.20
70521;BME280;58442;52.716;23.560;2023-03-04T01:21:10;100640.28;;;0.70;75.20
70521;BME280;58442;52.716;23.560;2023-03-04T01:23:20;100632.77;;;0.72;75.19
70521;BME280;58442;52.716;23.560;2023-03-04T01:25:21;100633.86;;;0.71;75.18
70521;BME280;58442;52.716;23.560;2023-03-04T01:27:22;100624.24;;;0.70;75.18
70521;BME280;58442;52.716;23.560;2023-03-04T01:29:24;100621.56;;;0.70;75.21
70521;BME280;58442;52.716;23.560;2023-03-04T01:31:35;100618.90;;;0.70;75.22
70521;BME280;58442;52.716;23.560;2023-03-04T01:33:36;100625.83;;;0.71;75.24
70521;BME280;58442;52.716;23.560;2023-03-04T01:35:37;100629.30;;;0.71;75.21
70521;BME280;58442;52.716;23.560;2023-03-04T01:37:39;100621.56;;;0.70;75.23
70521;BME280;58442;52.716;23.560;2023-03-04T01:39:50;100629.59;;;0.70;75.24
70521;BME280;58442;52.716;23.560;2023-03-04T01:41:51;100625.33;;;0.69;75.25
70521;BME280;58442;52.716;23.560;2023-03-04T01:43:57;100625.04;;;0.70;75.28
70521;BME280;58442;52.716;23.560;2023-03-04T01:46:02;100622.07;;;0.72;75.27
70521;BME280;58442;52.716;23.560;2023-03-04T01:48:07;100631.68;;;0.73;75.25
70521;BME280;58442;52.716;23.560;2023-03-04T01:50:18;100619.10;;;0.73;75.18
70521;BME280;58442;52.716;23.560;2023-03-04T01:52:20;100624.45;;;0.73;75.18
70521;BME280;58442;52.716;23.560;2023-03-04T01:54:21;100638.62;;;0.74;75.19
70521;BME280;58442;52.716;23.560;2023-03-04T01:56:27;100625.79;;;0.76;75.18
70521;BME280;58442;52.716;23.560;2023-03-04T01:58:30;100623.62;;;0.78;75.10
70521;BME280;58442;52.716;23.560;2023-03-04T02:00:33;100626.29;;;0.78;75.10
70521;BME280;58442;52.716;23.560;2023-03-04T02:02:36;100625.49;;;0.77;75.11
70521;BME280;58442;52.716;23.560;2023-03-04T02:04:40;100611.83;;;0.79;75.10
70521;BME280;58442;52.716;23.560;2023-03-04T02:06:44;100612.63;;;0.79;75.12
70521;BME280;58442;52.716;23.560;2023-03-04T02:08:46;100613.92;;;0.82;75.08
70521;BME280;58442;52.716;23.560;2023-03-04T02:10:48;100611.24;;;0.82;75.05
70521;BME280;58442;52.716;23.560;2023-03-04T02:12:54;100604.84;;;0.83;75.07
70521;BME280;58442;52.716;23.560;2023-03-04T02:14:57;100613.66;;;0.84;74.92
70521;BME280;58442;52.716;23.560;2023-03-04T02:16:58;100606.43;;;0.84;75.09
70521;BME280;58442;52.716;23.560;2023-03-04T02:19:00;100606.43;;;0.84;75.07
70521;BME280;58442;52.716;23.560;2023-03-04T02:23:39;100587.12;;;0.87;75.03
70521;BME280;58442;52.716;23.560;2023-03-04T02:26:16;100603.67;;;0.89;75.00
70521;BME280;58442;52.716;23.560;2023-03-04T02:28:14;100598.85;;;0.91;74.97
70521;BME280;58442;52.716;23.560;2023-03-04T02:30:19;100601.52;;;0.91;74.92
70521;BME280;58442;52.716;23.560;2023-03-04T02:32:21;100598.06;;;0.91;74.92
70521;BME280;58442;52.716;23.560;2023-03-04T02:34:32;100594.30;;;0.92;74.94
70521;BME280;58442;52.716;23.560;2023-03-04T02:36:35;100595.88;;;0.93;74.93
70521;BME280;58442;52.716;23.560;2023-03-04T02:38:36;100593.45;;;0.96;74.91
70521;BME280;58442;52.716;23.560;2023-03-04T02:40:41;100583.80;;;0.95;74.83
70521;BME280;58442;52.716;23.560;2023-03-04T02:42:44;100579.25;;;0.96;74.83
70521;BME280;58442;52.716;23.560;2023-03-04T02:44:46;100582.46;;;0.98;74.85
70521;BME280;58442;52.716;23.560;2023-03-04T02:46:50;100584.05;;;0.99;74.83
70521;BME280;58442;52.716;23.560;2023-03-04T02:48:52;100581.87;;;1.01;74.76
70521;BME280;58442;52.716;23.560;2023-03-04T02:50:54;100578.90;;;1.02;74.74
70521;BME280;58442;52.716;23.560;2023-03-04T02:52:59;100564.72;;;1.02;74.74
70521;BME280;58442;52.716;23.560;2023-03-04T02:55:00;100575.16;;;1.03;74.72
70521;BME280;58442;52.716;23.560;2023-03-04T02:57:04;100562.28;;;1.05;74.71
70521;BME280;58442;52.716;23.560;2023-03-04T02:59:06;100561.98;;;1.07;74.64
70521;BME280;58442;52.716;23.560;2023-03-04T03:01:14;100562.78;;;1.07;74.60
70521;BME280;58442;52.716;23.560;2023-03-04T03:03:15;100547.81;;;1.06;74.60
70521;BME280;58442;52.716;23.560;2023-03-04T03:05:17;100542.47;;;1.06;74.60
70521;BME280;58442;52.716;23.560;2023-03-04T03:07:19;100539.49;;;1.08;74.60
70521;BME280;58442;52.716;23.560;2023-03-04T03:09:29;100527.99;;;1.07;74.62
70521;BME280;58442;52.716;23.560;2023-03-04T03:11:30;100508.18;;;1.08;74.61
70521;BME280;58442;52.716;23.560;2023-03-04T03:13:31;100504.41;;;1.09;74.60
70521;BME280;58442;52.716;23.560;2023-03-04T03:15:33;100497.20;;;1.10;74.57
70521;BME280;58442;52.716;23.560;2023-03-04T03:17:44;100492.65;;;1.11;74.44
70521;BME280;58442;52.716;23.560;2023-03-04T03:19:46;100482.44;;;1.13;74.51
70521;BME280;58442;52.716;23.560;2023-03-04T03:21:47;100477.58;;;1.15;74.50
70521;BME280;58442;52.716;23.560;2023-03-04T03:23:50;100472.72;;;1.17;74.41
70521;BME280;58442;52.716;23.560;2023-03-04T03:26:00;100479.96;;;1.16;74.40
70521;BME280;58442;52.716;23.560;2023-03-04T03:28:01;100470.05;;;1.17;74.37
70521;BME280;58442;52.716;23.560;2023-03-04T03:30:03;100469.78;;;1.18;74.36
70521;BME280;58442;52.716;23.560;2023-03-04T03:32:05;100464.42;;;1.18;74.36
70521;BME280;58442;52.716;23.560;2023-03-04T03:34:14;100466.01;;;1.19;74.36
70521;BME280;58442;52.716;23.560;2023-03-04T03:36:15;100460.66;;;1.19;74.37
70521;BME280;58442;52.716;23.560;2023-03-04T03:38:17;100450.74;;;1.20;74.35
70521;BME280;58442;52.716;23.560;2023-03-04T03:40:18;100444.30;;;1.21;74.31
70521;BME280;58442;52.716;23.560;2023-03-04T03:42:29;100445.39;;;1.20;74.33
70521;BME280;58442;52.716;23.560;2023-03-04T03:44:31;100444.30;;;1.21;74.34
70521;BME280;58442;52.716;23.560;2023-03-04T03:46:32;100436.27;;;1.21;74.32
70521;BME280;58442;52.716;23.560;2023-03-04T03:48:35;100416.45;;;1.22;74.21
70521;BME280;58442;52.716;23.560;2023-03-04T03:50:44;100423.38;;;1.23;74.34
70521;BME280;58442;52.716;23.560;2023-03-04T03:52:45;100427.15;;;1.22;74.38
70521;BME280;58442;52.716;23.560;2023-03-04T03:54:47;100414.37;;;1.19;74.43
70521;BME280;58442;52.716;23.560;2023-03-04T03:56:48;100410.90;;;1.18;74.50
70521;BME280;58442;52.716;23.560;2023-03-04T03:58:59;100400.98;;;1.19;74.55
70521;BME280;58442;52.716;23.560;2023-03-04T04:01:01;100395.93;;;1.17;74.63
70521;BME280;58442;52.716;23.560;2023-03-04T04:03:02;100384.70;;;1.15;74.68
70521;BME280;58442;52.716;23.560;2023-03-04T04:05:05;100387.08;;;1.17;74.70
70521;BME280;58442;52.716;23.560;2023-03-04T04:07:14;100382.02;;;1.15;74.72
70521;BME280;58442;52.716;23.560;2023-03-04T04:09:16;100383.61;;;1.16;74.80
70521;BME280;58442;52.716;23.560;2023-03-04T04:11:17;100380.93;;;1.16;74.83
70521;BME280;58442;52.716;23.560;2023-03-04T04:13:19;100379.34;;;1.15;74.90
70521;BME280;58442;52.716;23.560;2023-03-04T04:15:29;100364.38;;;1.14;74.96
70521;BME280;58442;52.716;23.560;2023-03-04T04:17:31;100367.06;;;1.14;75.08
70521;BME280;58442;52.716;23.560;2023-03-04T04:19:32;100364.38;;;1.14;75.10
70521;BME280;58442;52.716;23.560;2023-03-04T04:21:33;100364.68;;;1.13;75.14
70521;BME280;58442;52.716;23.560;2023-03-04T04:23:44;100363.09;;;1.12;75.22
70521;BME280;58442;52.716;23.560;2023-03-04T04:25:46;100355.38;;;1.10;75.28
70521;BME280;58442;52.716;23.560;2023-03-04T04:27:47;100347.84;;;1.12;75.29
70521;BME280;58442;52.716;23.560;2023-03-04T04:29:48;100346.44;;;1.15;75.26
70521;BME280;58442;52.716;23.560;2023-03-04T04:31:59;100350.43;;;1.17;75.26
70521;BME280;58442;52.716;23.560;2023-03-04T04:34:01;100343.98;;;1.18;75.28
70521;BME280;58442;52.716;23.560;2023-03-04T04:36:03;100350.91;;;1.19;75.27
70521;BME280;58442;52.716;23.560;2023-03-04T04:38:06;100350.91;;;1.19;75.32
70521;BME280;58442;52.716;23.560;2023-03-04T04:40:15;100346.36;;;1.20;75.37
70521;BME280;58442;52.716;23.560;2023-03-04T04:42:16;100341.80;;;1.20;75.41
70521;BME280;58442;52.716;23.560;2023-03-04T04:44:18;100333.77;;;1.20;75.44
70521;BME280;58442;52.716;23.560;2023-03-04T04:46:19;100349.04;;;1.20;75.52
70521;BME280;58442;52.716;23.560;2023-03-04T04:48:29;100343.69;;;1.20;75.56
70521;BME280;58442;52.716;23.560;2023-03-04T04:50:31;100344.97;;;1.22;75.56
70521;BME280;58442;52.716;23.560;2023-03-04T04:52:32;100350.84;;;1.24;75.56
70521;BME280;58442;52.716;23.560;2023-03-04T04:54:33;100334.78;;;1.24;75.55
70521;BME280;58442;52.716;23.560;2023-03-04T04:56:45;100336.37;;;1.25;75.62
70521;BME280;58442;52.716;23.560;2023-03-04T04:58:47;100347.07;;;1.25;75.63
70521;BME280;58442;52.716;23.560;2023-03-04T05:00:48;100355.89;;;1.26;75.66
70521;BME280;58442;52.716;23.560;2023-03-04T05:02:49;100354.01;;;1.26;75.68
70521;BME280;58442;52.716;23.560;2023-03-04T05:05:00;100357.48;;;1.27;75.74
70521;BME280;58442;52.716;23.560;2023-03-04T05:07:01;100356.38;;;1.28;75.80
70521;BME280;58442;52.716;23.560;2023-03-04T05:09:03;100345.67;;;1.28;75.80
70521;BME280;58442;52.716;23.560;2023-03-04T05:11:05;100343.79;;;1.28;75.82
70521;BME280;58442;52.716;23.560;2023-03-04T05:13:15;100343.49;;;1.30;75.83
70521;BME280;58442;52.716;23.560;2023-03-04T05:15:16;100350.46;;;1.31;75.89
70521;BME280;58442;52.716;23.560;2023-03-04T05:17:18;100351.24;;;1.31;75.91
70521;BME280;58442;52.716;23.560;2023-03-04T05:19:20;100344.01;;;1.32;75.91
70521;BME280;58442;52.716;23.560;2023-03-04T05:21:30;100337.56;;;1.33;75.96
70521;BME280;58442;52.716;23.560;2023-03-04T05:23:34;100331.12;;;1.34;76.02
70521;BME280;58442;52.716;23.560;2023-03-04T05:25:36;100330.02;;;1.35;76.03
70521;BME280;58442;52.716;23.560;2023-03-04T05:27:37;100314.75;;;1.35;76.04
70521;BME280;58442;52.716;23.560;2023-03-04T05:29:45;100311.77;;;1.37;76.07
70521;BME280;58442;52.716;23.560;2023-03-04T05:31:46;100322.48;;;1.37;76.10
70521;BME280;58442;52.716;23.560;2023-03-04T05:33:48;100307.24;;;1.38;76.15
70521;BME280;58442;52.716;23.560;2023-03-04T05:35:49;100304.27;;;1.39;76.15
70521;BME280;58442;52.716;23.560;2023-03-04T05:38:01;100319.71;;;1.42;76.17
70521;BME280;58442;52.716;23.560;2023-03-04T05:40:03;100310.31;;;1.45;76.15
70521;BME280;58442;52.716;23.560;2023-03-04T05:42:05;100310.80;;;1.47;76.17
70521;BME280;58442;52.716;23.560;2023-03-04T05:44:07;100308.92;;;1.47;76.18
70521;BME280;58442;52.716;23.560;2023-03-04T05:46:16;100304.06;;;1.49;76.21
70521;BME280;58442;52.716;23.560;2023-03-04T05:48:18;100308.05;;;1.52;76.24
70521;BME280;58442;52.716;23.560;2023-03-04T05:50:21;100304.27;;;1.53;76.23
70521;BME280;58442;52.716;23.560;2023-03-04T05:52:23;100306.65;;;1.54;76.22
70521;BME280;58442;52.716;23.560;2023-03-04T05:54:30;100305.55;;;1.55;76.27
70521;BME280;58442;52.716;23.560;2023-03-04T05:56:32;100306.85;;;1.58;76.27
70521;BME280;58442;52.716;23.560;2023-03-04T05:58:33;100316.17;;;1.60;76.25
70521;BME280;58442;52.716;23.560;2023-03-04T06:00:34;100314.77;;;1.63;76.23
70521;BME280;58442;52.716;23.560;2023-03-04T06:02:45;100308.84;;;1.66;76.22
70521;BME280;58442;52.716;23.560;2023-03-04T06:04:46;100302.70;;;1.66;76.23
70521;BME280;58442;52.716;23.560;2023-03-04T06:06:48;100303.16;;;1.68;76.20
70521;BME280;58442;52.716;23.560;2023-03-04T06:08:49;100304.45;;;1.70;76.20
70521;BME280;58442;52.716;23.560;2023-03-04T06:11:00;100298.81;;;1.72;76.22
70521;BME280;58442;52.716;23.560;2023-03-04T06:13:05;100296.13;;;1.72;76.25
70521;BME280;58442;52.716;23.560;2023-03-04T06:15:07;100287.80;;;1.73;76.25
70521;BME280;58442;52.716;23.560;2023-03-04T06:17:12;100290.17;;;1.75;76.25
70521;BME280;58442;52.716;23.560;2023-03-04T06:19:15;100288.77;;;1.77;76.21
70521;BME280;58442;52.716;23.560;2023-03-04T06:21:16;100272.11;;;1.80;76.19
70521;BME280;58442;52.716;23.560;2023-03-04T06:23:18;100266.93;;;1.84;76.15
70521;BME280;58442;52.716;23.560;2023-03-04T06:25:19;100263.98;;;1.85;76.10
70521;BME280;58442;52.716;23.560;2023-03-04T06:27:30;100264.16;;;1.89;76.07
70521;BME280;58442;52.716;23.560;2023-03-04T06:29:32;100270.51;;;1.93;76.06
70521;BME280;58442;52.716;23.560;2023-03-04T06:31:33;100279.52;;;1.97;76.02
70521;BME280;58442;52.716;23.560;2023-03-04T06:33:35;100273.57;;;2.00;76.00
70521;BME280;58442;52.716;23.560;2023-03-04T06:35:45;100277.52;;;2.03;76.00
70521;BME280;58442;52.716;23.560;2023-03-04T06:37:47;100277.22;;;2.04;76.00
70521;BME280;58442;52.716;23.560;2023-03-04T06:39:49;100285.46;;;2.08;75.99
70521;BME280;58442;52.716;23.560;2023-03-04T06:41:50;100277.32;;;2.13;75.93
70521;BME280;58442;52.716;23.560;2023-03-04T06:44:00;100289.80;;;2.17;75.88
70521;BME280;58442;52.716;23.560;2023-03-04T06:46:01;100293.79;;;2.20;75.86
70521;BME280;58442;52.716;23.560;2023-03-04T06:48:03;100292.37;;;2.23;75.80
70521;BME280;58442;52.716;23.560;2023-03-04T06:50:05;100293.64;;;2.25;75.71
70521;BME280;58442;52.716;23.560;2023-03-04T06:52:15;100275.88;;;2.29;75.73
70521;BME280;58442;52.716;23.560;2023-03-04T06:54:17;100272.29;;;2.34;75.66
70521;BME280;58442;52.716;23.560;2023-03-04T06:56:18;100258.58;;;2.35;75.57
70521;BME280;58442;52.716;23.560;2023-03-04T06:58:20;100262.52;;;2.38;75.53
70521;BME280;58442;52.716;23.560;2023-03-04T07:00:31;100253.58;;;2.42;75.45
70521;BME280;58442;52.716;23.560;2023-03-04T07:02:32;100254.26;;;2.48;75.40
70521;BME280;58442;52.716;23.560;2023-03-04T07:04:33;100256.20;;;2.56;75.34
70521;BME280;58442;52.716;23.560;2023-03-04T07:06:35;100268.40;;;2.62;75.27
70521;BME280;58442;52.716;23.560;2023-03-04T07:08:46;100287.34;;;2.66;75.20
70521;BME280;58442;52.716;23.560;2023-03-04T07:10:48;100277.40;;;2.66;75.15
70521;BME280;58442;52.716;23.560;2023-03-04T07:12:49;100280.59;;;2.68;75.08
70521;BME280;58442;52.716;23.560;2023-03-04T07:14:50;100281.38;;;2.69;75.01
70521;BME280;58442;52.716;23.560;2023-03-04T07:17:01;100283.27;;;2.68;74.99
70521;BME280;58442;52.716;23.560;2023-03-04T07:19:02;100292.12;;;2.69;74.98
70521;BME280;58442;52.716;23.560;2023-03-04T07:21:05;100295.59;;;2.69;74.96
70521;BME280;58442;52.716;23.560;2023-03-04T07:23:06;100293.21;;;2.68;74.95
70521;BME280;58442;52.716;23.560;2023-03-04T07:25:16;100304.42;;;2.70;74.91
70521;BME280;58442;52.716;23.560;2023-03-04T07:27:17;100290.70;;;2.71;74.84
70521;BME280;58442;52.716;23.560;2023-03-04T07:29:19;100295.75;;;2.73;74.81
70521;BME280;58442;52.716;23.560;2023-03-04T07:31:28;100293.58;;;2.75;74.77
70521;BME280;58442;52.716;23.560;2023-03-04T07:33:31;100284.74;;;2.74;74.73
70521;BME280;58442;52.716;23.560;2023-03-04T07:35:33;100291.07;;;2.79;74.72
70521;BME280;58442;52.716;23.560;2023-03-04T07:37:34;100281.91;;;2.80;74.71
70521;BME280;58442;52.716;23.560;2023-03-04T07:39:35;100283.50;;;2.81;74.69
70521;BME280;58442;52.716;23.560;2023-03-04T07:41:46;100275.16;;;2.82;74.60
70521;BME280;58442;52.716;23.560;2023-03-04T07:43:47;100269.16;;;2.85;74.55
70521;BME280;58442;52.716;23.560;2023-03-04T07:45:49;100274.73;;;2.89;74.53
70521;BME280;58442;52.716;23.560;2023-03-04T07:47:51;100269.99;;;2.94;74.51
70521;BME280;58442;52.716;23.560;2023-03-04T07:50:01;100254.56;;;3.00;74.43
70521;BME280;58442;52.716;23.560;2023-03-04T07:52:03;100244.48;;;3.06;74.31
70521;BME280;58442;52.716;23.560;2023-03-04T07:54:05;100235.20;;;3.12;74.21
70521;BME280;58442;52.716;23.560;2023-03-04T07:56:10;100227.49;;;3.19;74.12
70521;BME280;58442;52.716;23.560;2023-03-04T07:58:16;100240.95;;;3.27;74.00
70521;BME280;58442;52.716;23.560;2023-03-04T08:00:20;100258.34;;;3.30;73.90
70521;BME280;58442;52.716;23.560;2023-03-04T08:02:21;100259.93;;;3.31;73.84
70521;BME280;58442;52.716;23.560;2023-03-04T08:04:23;100247.45;;;3.35;73.79
70521;BME280;58442;52.716;23.560;2023-03-04T08:06:32;100250.30;;;3.39;73.74
70521;BME280;58442;52.716;23.560;2023-03-04T08:08:34;100257.27;;;3.40;73.73
70521;BME280;58442;52.716;23.560;2023-03-04T08:10:35;100261.99;;;3.43;73.62
70521;BME280;58442;52.716;23.560;2023-03-04T08:12:39;100257.74;;;3.42;73.57
70521;BME280;58442;52.716;23.560;2023-03-04T08:14:46;100253.78;;;3.39;73.47
70521;BME280;58442;52.716;23.560;2023-03-04T08:16:48;100247.95;;;3.37;73.49
70521;BME280;58442;52.716;23.560;2023-03-04T08:18:52;100233.73;;;3.37;73.41
70521;BME280;58442;52.716;23.560;2023-03-04T08:20:54;100241.28;;;3.35;73.44
70521;BME280;58442;52.716;23.560;2023-03-04T08:23:01;100242.70;;;3.32;73.47
70521;BME280;58442;52.716;23.560;2023-03-04T08:25:55;100249.98;;;3.32;73.48
70521;BME280;58442;52.716;23.560;2023-03-04T08:27:57;100252.18;;;3.29;73.47
70521;BME280;58442;52.716;23.560;2023-03-04T08:29:58;100255.95;;;3.28;73.45
70521;BME280;58442;52.716;23.560;2023-03-04T08:32:10;100252.78;;;3.26;73.48
70521;BME280;58442;52.716;23.560;2023-03-04T08:34:12;100261.95;;;3.25;73.49
70521;BME280;58442;52.716;23.560;2023-03-04T08:36:15;100253.58;;;3.27;73.43
70521;BME280;58442;52.716;23.560;2023-03-04T08:38:16;100242.36;;;3.25;73.43
70521;BME280;58442;52.716;23.560;2023-03-04T08:40:25;100247.26;;;3.23;73.47
70521;BME280;58442;52.716;23.560;2023-03-04T08:42:27;100257.19;;;3.22;73.49
70521;BME280;58442;52.716;23.560;2023-03-04T08:44:28;100254.50;;;3.22;73.47
70521;BME280;58442;52.716;23.560;2023-03-04T08:46:29;100258.79;;;3.23;73.49
70521;BME280;58442;52.716;23.560;2023-03-04T08:48:40;100244.26;;;3.24;73.41
70521;BME280;58442;52.716;23.560;2023-03-04T08:50:43;100246.81;;;3.29;73.39
70521;BME280;58442;52.716;23.560;2023-03-04T08:52:45;100241.28;;;3.35;73.35
70521;BME280;58442;52.716;23.560;2023-03-04T08:54:46;100244.02;;;3.43;73.28
70521;BME280;58442;52.716;23.560;2023-03-04T08:56:55;100236.45;;;3.54;73.14
70521;BME280;58442;52.716;23.560;2023-03-04T08:58:58;100251.19;;;3.65;73.04
70521;BME280;58442;52.716;23.560;2023-03-04T09:01:00;100235.86;;;3.74;72.93
70521;BME280;58442;52.716;23.560;2023-03-04T09:03:03;100241.74;;;3.85;72.80
70521;BME280;58442;52.716;23.560;2023-03-04T09:05:10;100239.05;;;3.94;72.63
70521;BME280;58442;52.716;23.560;2023-03-04T09:07:11;100238.73;;;4.04;72.49
70521;BME280;58442;52.716;23.560;2023-03-04T09:09:14;100236.86;;;4.13;72.36
70521;BME280;58442;52.716;23.560;2023-03-04T09:11:15;100235.28;;;4.21;72.12
70521;BME280;58442;52.716;23.560;2023-03-04T09:13:27;100227.06;;;4.26;71.93
70521;BME280;58442;52.716;23.560;2023-03-04T09:15:29;100227.66;;;4.31;71.91
70521;BME280;58442;52.716;23.560;2023-03-04T09:17:31;100213.44;;;4.39;71.78
70521;BME280;58442;52.716;23.560;2023-03-04T09:19:32;100227.20;;;4.47;71.59
70521;BME280;58442;52.716;23.560;2023-03-04T09:21:40;100225.60;;;4.54;71.45
70521;BME280;58442;52.716;23.560;2023-03-04T09:23:41;100220.02;;;4.59;71.40
70521;BME280;58442;52.716;23.560;2023-03-04T09:25:44;100219.55;;;4.66;71.28
70521;BME280;58442;52.716;23.560;2023-03-04T09:27:47;100209.90;;;4.74;71.14
70521;BME280;58442;52.716;23.560;2023-03-04T09:29:55;100214.45;;;4.82;71.04
70521;BME280;58442;52.716;23.560;2023-03-04T09:31:56;100213.63;;;4.90;70.83
70521;BME280;58442;52.716;23.560;2023-03-04T09:33:58;100206.18;;;4.96;70.67
70521;BME280;58442;52.716;23.560;2023-03-04T09:36:00;100211.85;;;5.03;70.54
70521;BME280;58442;52.716;23.560;2023-03-04T09:38:10;100212.47;;;5.08;70.35
70521;BME280;58442;52.716;23.560;2023-03-04T09:40:21;100205.31;;;5.12;70.22
70521;BME280;58442;52.716;23.560;2023-03-04T09:42:32;100203.89;;;5.15;70.15
70521;BME280;58442;52.716;23.560;2023-03-04T09:44:38;100203.23;;;5.18;70.08
70521;BME280;58442;52.716;23.560;2023-03-04T09:46:42;100205.59;;;5.19;70.03
70521;BME280;58442;52.716;23.560;2023-03-04T09:48:51;100199.42;;;5.19;69.82
70521;BME280;58442;52.716;23.560;2023-03-04T09:51:05;100214.66;;;5.15;69.59
70521;BME280;58442;52.716;23.560;2023-03-04T09:53:18;100200.71;;;5.13;69.58
70521;BME280;58442;52.716;23.560;2023-03-04T09:55:30;100209.91;;;5.12;69.59
70521;BME280;58442;52.716;23.560;2023-03-04T09:59:58;100193.29;;;5.10;69.63
70521;BME280;58442;52.716;23.560;2023-03-04T10:02:12;100180.79;;;5.05;69.61
70521;BME280;58442;52.716;23.560;2023-03-04T10:06:41;100185.43;;;4.96;69.53
70521;BME280;58442;52.716;23.560;2023-03-04T10:08:57;100172.79;;;4.88;69.58
70521;BME280;58442;52.716;23.560;2023-03-04T10:11:01;100171.39;;;4.82;69.63
70521;BME280;58442;52.716;23.560;2023-03-04T10:13:05;100167.73;;;4.78;69.66
70521;BME280;58442;52.716;23.560;2023-03-04T10:15:20;100162.69;;;4.76;69.78
70521;BME280;58442;52.716;23.560;2023-03-04T10:17:35;100164.59;;;4.76;69.82
70521;BME280;58442;52.716;23.560;2023-03-04T10:19:56;100154.61;;;4.76;69.71
70521;BME280;58442;52.716;23.560;2023-03-04T10:22:24;100164.92;;;4.74;69.67
70521;BME280;58442;52.716;23.560;2023-03-04T10:24:29;100155.06;;;4.78;69.64
70521;BME280;58442;52.716;23.560;2023-03-04T10:26:31;100154.58;;;4.85;69.57
70521;BME280;58442;52.716;23.560;2023-03-04T10:28:33;100151.38;;;4.91;69.60
70521;BME280;58442;52.716;23.560;2023-03-04T10:32:48;100146.94;;;4.96;69.25
70521;BME280;58442;52.716;23.560;2023-03-04T10:34:50;100149.15;;;4.93;69.05
70521;BME280;58442;52.716;23.560;2023-03-04T10:39:13;100139.37;;;4.89;69.15
70521;BME280;58442;52.716;23.560;2023-03-04T10:41:22;100130.01;;;4.86;69.14
70521;BME280;58442;52.716;23.560;2023-03-04T10:43:27;100122.59;;;4.83;69.22
70521;BME280;58442;52.716;23.560;2023-03-04T10:45:29;100130.22;;;4.81;69.19
70521;BME280;58442;52.716;23.560;2023-03-04T10:47:31;100124.50;;;4.83;69.13
70521;BME280;58442;52.716;23.560;2023-03-04T10:51:50;100129.10;;;4.82;69.25
70521;BME280;58442;52.716;23.560;2023-03-04T10:54:02;100127.52;;;4.81;69.29
70521;BME280;58442;52.716;23.560;2023-03-04T10:58:19;100119.62;;;4.76;69.34
70521;BME280;58442;52.716;23.560;2023-03-04T11:00:29;100116.77;;;4.73;69.41
70521;BME280;58442;52.716;23.560;2023-03-04T11:02:34;100112.50;;;4.72;69.44
70521;BME280;58442;52.716;23.560;2023-03-04T11:07:09;100105.09;;;4.69;69.41
70521;BME280;58442;52.716;23.560;2023-03-04T11:09:21;100101.27;;;4.70;69.42